Time;durP1;ratioP1;P1;durP2;ratioP2;P2;SDS_P1;SDS_P2;PMS_P1;PMS_P2;Temp;Humidity;BMP_temperature;BMP_pressure;BME280_temperature;BME280_humidity;BME280_pressure;Samples;Min_cycle;Max_cycle;Signal;HPM_P1;HPM_P2
2023/01/29 00:02:25;;;;;;;8.43;5.60;;;1.10;99.90;;;;;;4890296;29;20053;-76
2023/01/29 00:04:52;;;;;;;9.48;5.68;;;1.10;99.90;;;;;;4889957;29;20040;-77
2023/01/29 00:07:18;;;;;;;8.70;5.78;;;1.10;99.90;;;;;;4890304;29;20044;-77
2023/01/29 00:09:43;;;;;;;7.65;5.53;;;1.20;99.90;;;;;;4890111;29;20053;-76
2023/01/29 00:12:09;;;;;;;8.80;5.70;;;1.20;99.90;;;;;;4888120;29;20067;-79
2023/01/29 00:14:35;;;;;;;8.57;6.20;;;1.20;99.90;;;;;;4904649;29;20021;-77
2023/01/29 00:17:00;;;;;;;12.75;9.00;;;1.20;99.90;;;;;;4889149;29;20301;-77
2023/01/29 00:19:26;;;;;;;9.07;5.55;;;1.20;99.90;;;;;;4889977;29;20043;-78
2023/01/29 00:21:52;;;;;;;7.35;5.30;;;1.20;99.90;;;;;;4889307;29;20033;-77
2023/01/29 00:24:18;;;;;;;9.48;5.30;;;1.10;99.90;;;;;;4889983;29;20181;-76
2023/01/29 00:26:43;;;;;;;9.23;5.65;;;1.10;99.90;;;;;;4889666;29;20326;-76
2023/01/29 00:29:10;;;;;;;6.75;4.95;;;1.10;99.90;;;;;;4873381;29;20057;-77
2023/01/29 06:02:40;;;;;;;9.20;6.00;;;0.30;99.90;;;;;;5300529;23;20053;-78
2023/01/29 06:05:06;;;;;;;10.32;5.60;;;0.30;99.90;;;;;;4879747;29;20037;-78
2023/01/29 06:07:32;;;;;;;9.35;6.00;;;0.30;99.90;;;;;;4869186;29;20092;-77
2023/01/29 06:09:58;;;;;;;10.30;6.45;;;0.20;99.90;;;;;;4857880;29;20110;-76
2023/01/29 06:12:25;;;;;;;9.27;6.55;;;0.20;99.90;;;;;;4868781;29;20338;-78
2023/01/29 06:14:50;;;;;;;10.85;6.60;;;0.20;99.90;;;;;;4852750;29;20040;-78
2023/01/29 06:17:16;;;;;;;9.73;6.32;;;0.20;99.90;;;;;;4869677;29;20061;-76
2023/01/29 06:19:42;;;;;;;11.07;6.32;;;0.20;99.90;;;;;;4871700;29;20032;-77
2023/01/29 06:22:08;;;;;;;10.30;6.25;;;0.20;99.90;;;;;;4868641;29;20090;-77
2023/01/29 06:24:34;;;;;;;9.35;5.85;;;0.10;99.90;;;;;;4883536;29;20026;-76
2023/01/29 06:27:00;;;;;;;9.93;6.60;;;0.10;99.90;;;;;;4883655;29;20025;-79
2023/01/29 06:29:26;;;;;;;9.75;5.75;;;0.10;99.90;;;;;;4867728;29;20029;-76
2023/01/29 06:31:51;;;;;;;10.20;6.00;;;0.10;99.90;;;;;;4883107;29;20037;-79
2023/01/29 06:34:17;;;;;;;10.05;5.88;;;0.10;99.90;;;;;;4867599;29;20025;-78
2023/01/29 06:36:43;;;;;;;11.50;6.57;;;0.10;99.90;;;;;;4867869;29;20065;-77
2023/01/29 06:39:09;;;;;;;9.93;6.13;;;0.10;99.90;;;;;;4868422;29;20030;-78
2023/01/29 06:41:35;;;;;;;12.82;7.05;;;0.10;99.90;;;;;;4868104;29;20025;-81
2023/01/29 06:44:01;;;;;;;11.93;6.80;;;0.20;99.90;;;;;;4883626;29;20033;-76
2023/01/29 06:46:27;;;;;;;12.80;6.97;;;0.20;99.90;;;;;;4867564;29;20033;-80
2023/01/29 06:48:52;;;;;;;10.88;6.40;;;0.20;99.90;;;;;;4867935;29;20077;-77
2023/01/29 06:51:20;;;;;;;10.27;5.93;;;0.30;99.90;;;;;;4868267;29;20044;-76
2023/01/29 06:53:48;;;;;;;12.53;6.40;;;0.30;99.90;;;;;;4852622;29;20279;-77
2023/01/29 06:56:13;;;;;;;8.85;5.80;;;0.30;99.90;;;;;;4867404;29;20441;-78
2023/01/29 06:58:40;;;;;;;9.57;5.90;;;0.30;99.90;;;;;;4864670;29;20021;-78
2023/01/29 07:01:08;;;;;;;9.23;6.07;;;0.30;99.90;;;;;;4849453;29;20249;-81
2023/01/29 07:03:34;;;;;;;10.60;6.45;;;0.40;99.90;;;;;;4854416;29;20052;-77
2023/01/29 07:06:00;;;;;;;8.80;5.30;;;0.30;99.90;;;;;;4864417;29;20134;-79
2023/01/29 07:08:27;;;;;;;10.70;6.22;;;0.30;99.90;;;;;;4879579;29;20025;-76
2023/01/29 07:10:52;;;;;;;9.15;6.15;;;0.30;99.90;;;;;;4864531;29;20036;-77
2023/01/29 07:13:18;;;;;;;9.65;6.03;;;0.40;99.90;;;;;;4848600;29;20216;-77
2023/01/29 07:15:44;;;;;;;11.88;5.82;;;0.30;99.90;;;;;;4849953;29;20045;-77
2023/01/29 07:18:13;;;;;;;9.73;5.45;;;0.30;99.90;;;;;;4864199;29;20044;-78
2023/01/29 07:20:40;;;;;;;10.07;6.22;;;0.40;99.90;;;;;;4848864;29;20026;-78
2023/01/29 07:23:09;;;;;;;9.07;5.60;;;0.50;99.90;;;;;;4850958;29;20076;-76
2023/01/29 07:25:35;;;;;;;8.38;5.30;;;0.50;99.90;;;;;;4852986;29;20048;-76
2023/01/29 07:28:01;;;;;;;10.02;5.32;;;0.50;99.90;;;;;;4852478;29;20101;-76
2023/01/29 07:30:27;;;;;;;7.30;5.30;;;0.50;99.90;;;;;;4852902;29;20049;-77
2023/01/29 07:32:52;;;;;;;9.70;5.47;;;0.60;99.90;;;;;;4853226;29;20230;-78
2023/01/29 07:35:18;;;;;;;10.27;6.15;;;0.70;99.90;;;;;;4852784;29;20320;-77
2023/01/29 07:37:47;;;;;;;9.75;5.68;;;0.70;99.90;;;;;;4867684;29;20041;-77
2023/01/29 07:40:13;;;;;;;9.38;5.95;;;0.70;99.90;;;;;;4871426;29;20045;-79
2023/01/29 07:42:41;;;;;;;8.75;5.40;;;0.70;99.90;;;;;;4885857;29;20052;-77
2023/01/29 07:45:07;;;;;;;8.68;5.40;;;0.60;99.90;;;;;;4871509;29;20037;-76
2023/01/29 07:47:33;;;;;;;8.98;5.68;;;0.70;99.90;;;;;;4871227;29;20109;-79
2023/01/29 07:49:59;;;;;;;8.95;5.70;;;0.70;99.90;;;;;;4871815;29;20212;-77
2023/01/29 07:52:25;;;;;;;10.07;5.93;;;0.80;99.90;;;;;;4871306;29;20049;-77
2023/01/29 07:54:51;;;;;;;8.68;6.25;;;0.80;99.90;;;;;;4871589;29;20037;-76
2023/01/29 07:57:17;;;;;;;10.90;6.43;;;0.80;99.90;;;;;;4885539;29;20056;-77
2023/01/29 07:59:42;;;;;;;8.85;6.22;;;0.80;99.90;;;;;;4871609;29;20069;-77
2023/01/29 08:02:08;;;;;;;9.48;6.05;;;0.80;99.90;;;;;;4870989;29;20328;-76
2023/01/29 08:04:34;;;;;;;8.88;5.60;;;0.90;99.90;;;;;;4870488;29;20255;-77
2023/01/29 08:07:00;;;;;;;8.27;5.53;;;1.00;99.90;;;;;;4871688;29;20033;-76
2023/01/29 08:09:26;;;;;;;7.97;5.40;;;1.10;99.90;;;;;;4869851;29;20341;-76
2023/01/29 08:11:52;;;;;;;8.48;5.82;;;1.10;99.90;;;;;;4871322;29;20210;-76
2023/01/29 08:14:18;;;;;;;7.82;5.00;;;1.10;99.90;;;;;;4869692;29;20033;-77
2023/01/29 08:16:44;;;;;;;10.35;5.60;;;1.20;99.90;;;;;;4871314;29;20390;-79
2023/01/29 08:19:13;;;;;;;9.02;5.95;;;1.20;99.90;;;;;;4871701;29;20060;-79
2023/01/29 08:21:38;;;;;;;11.00;6.30;;;1.20;99.90;;;;;;4853825;29;20039;-76
2023/01/29 08:24:05;;;;;;;10.98;6.25;;;1.20;99.90;;;;;;4869925;29;20045;-75
2023/01/29 08:26:31;;;;;;;9.90;6.18;;;1.20;99.90;;;;;;4870325;29;20037;-77
2023/01/29 08:28:56;;;;;;;10.02;5.55;;;1.10;99.90;;;;;;4870884;29;20044;-79
2023/01/29 08:31:22;;;;;;;8.48;5.30;;;1.10;99.90;;;;;;4869077;29;20033;-75
2023/01/29 08:33:48;;;;;;;9.20;6.00;;;1.10;99.90;;;;;;4870620;29;20053;-77
2023/01/29 08:36:14;;;;;;;10.63;6.00;;;1.20;99.90;;;;;;4868107;29;20219;-78
2023/01/29 08:38:42;;;;;;;;;;;1.20;99.90;;;;;;4870714;29;20038;-76
2023/01/29 08:41:08;;;;;;;10.82;5.93;;;1.30;99.90;;;;;;4884652;29;20118;-78
2023/01/29 08:43:35;;;;;;;9.93;5.40;;;1.30;99.90;;;;;;4869877;29;20033;-77
2023/01/29 08:46:06;;;;;;;10.27;6.00;;;1.40;99.90;;;;;;4870262;29;20022;-78
2023/01/29 08:48:32;;;;;;;11.45;6.13;;;1.40;99.90;;;;;;4870079;29;20089;-77
2023/01/29 08:50:59;;;;;;;9.55;6.15;;;1.50;99.90;;;;;;4869046;29;20291;-79
2023/01/29 08:53:25;;;;;;;10.90;6.68;;;1.40;99.90;;;;;;4862186;29;20120;-77
2023/01/29 08:55:51;;;;;;;11.43;6.43;;;1.40;99.90;;;;;;4882352;29;20053;-77
2023/01/29 08:58:17;;;;;;;10.25;6.03;;;1.50;99.90;;;;;;4869107;29;20033;-79
2023/01/29 09:00:43;;;;;;;9.60;6.30;;;1.60;99.90;;;;;;4882497;29;20025;-77
2023/01/29 09:03:09;;;;;;;11.80;6.28;;;1.60;99.90;;;;;;4853581;29;20084;-79
2023/01/29 09:05:37;;;;;;;11.25;5.88;;;1.70;99.90;;;;;;4853021;29;20319;-78
2023/01/29 09:08:04;;;;;;;10.70;6.00;;;1.70;99.90;;;;;;4869721;29;20028;-77
2023/01/29 09:10:30;;;;;;;11.07;6.78;;;1.80;99.90;;;;;;4875578;29;20085;-78
2023/01/29 09:12:55;;;;;;;9.77;6.07;;;1.90;99.90;;;;;;4902843;29;20108;-79
2023/01/29 09:15:22;;;;;;;10.80;6.80;;;2.00;99.90;;;;;;4873772;29;20041;-77
2023/01/29 09:17:50;;;;;;;11.77;6.80;;;2.00;99.90;;;;;;4869747;29;20199;-79
2023/01/29 09:20:16;;;;;;;;;;;2.10;99.90;;;;;;4870013;29;20041;-77
2023/01/29 09:22:42;;;;;;;9.63;6.05;;;2.20;99.90;;;;;;4869026;29;19986;-78
2023/01/29 09:25:09;;;;;;;8.52;5.78;;;2.30;99.90;;;;;;4884038;29;20081;-77
2023/01/29 09:27:35;;;;;;;11.77;6.40;;;2.40;99.90;;;;;;4868398;29;20040;-77
2023/01/29 09:30:01;;;;;;;8.85;6.35;;;2.50;99.90;;;;;;4884164;29;20041;-77
2023/01/29 09:32:29;;;;;;;13.40;6.78;;;2.50;99.90;;;;;;4869031;29;20040;-79
2023/01/29 09:34:55;;;;;;;9.87;6.77;;;2.50;99.90;;;;;;4869687;29;20068;-79
2023/01/29 09:37:22;;;;;;;11.38;7.90;;;2.50;99.90;;;;;;4868172;29;20085;-80
2023/01/29 09:39:53;;;;;;;13.20;7.50;;;2.50;99.90;;;;;;4868536;29;20339;-79
2023/01/29 09:42:45;;;;;;;13.68;8.93;;;2.50;99.90;;;;;;4869215;29;20053;-79
2023/01/29 09:45:20;;;;;;;13.13;9.23;;;2.60;99.90;;;;;;4868957;29;20021;-80
2023/01/29 09:47:47;;;;;;;11.93;7.25;;;2.60;99.90;;;;;;4883992;29;20370;-75
2023/01/29 09:50:16;;;;;;;12.00;7.43;;;2.80;99.90;;;;;;4869125;29;20040;-77
2023/01/29 09:53:12;;;;;;;10.73;6.78;;;2.90;99.90;;;;;;4868763;29;20331;-77
2023/01/29 09:55:47;;;;;;;11.57;6.80;;;2.90;99.90;;;;;;4869167;29;20055;-75
2023/01/29 09:58:26;;;;;;;14.50;8.50;;;3.10;99.90;;;;;;4869349;29;20057;-77
2023/01/29 10:01:31;;;;;;;13.73;8.45;;;3.20;99.90;;;;;;4869933;29;20029;-79
2023/01/29 10:04:21;;;;;;;10.20;6.60;;;3.20;99.90;;;;;;4868985;29;20351;-77
2023/01/29 10:06:56;;;;;;;8.68;6.82;;;3.20;99.60;;;;;;4869449;29;20052;-78
2023/01/29 10:09:57;;;;;;;10.45;6.57;;;3.40;99.30;;;;;;4868744;29;20040;-78
2023/01/29 10:13:01;;;;;;;11.73;6.68;;;3.90;98.50;;;;;;4868791;29;20036;-79
2023/01/29 10:15:46;;;;;;;10.32;7.03;;;3.90;98.00;;;;;;5104590;23;20050;-75
2023/01/29 10:18:27;;;;;;;13.88;7.35;;;4.00;97.40;;;;;;4875395;29;20045;-77
2023/01/29 10:21:14;;;;;;;10.15;6.88;;;4.00;97.80;;;;;;4871082;29;20045;-77
2023/01/29 10:23:46;;;;;;;9.00;6.47;;;3.80;97.70;;;;;;4887413;29;20055;-75
2023/01/29 10:26:12;;;;;;;11.20;7.93;;;4.00;97.60;;;;;;4887974;29;20059;-77
2023/01/29 10:28:47;;;;;;;11.23;7.03;;;3.80;97.70;;;;;;4901812;29;20036;-76
2023/01/29 10:31:23;;;;;;;12.95;8.90;;;4.10;97.70;;;;;;4888001;29;20072;-78
2023/01/29 10:33:55;;;;;;;10.75;7.88;;;4.40;97.40;;;;;;4879122;29;20211;-77
2023/01/29 10:36:41;;;;;;;13.60;8.30;;;4.20;96.90;;;;;;4874270;29;20030;-77
2023/01/29 10:39:17;;;;;;;13.35;7.72;;;3.90;97.30;;;;;;4869367;29;20233;-77
2023/01/29 10:41:56;;;;;;;11.43;6.78;;;3.90;96.80;;;;;;4868965;29;20052;-78
2023/01/29 10:44:44;;;;;;;10.52;7.30;;;4.00;97.10;;;;;;4870151;29;20037;-78
2023/01/29 10:47:28;;;;;;;11.52;7.68;;;4.10;97.10;;;;;;4868295;29;20056;-75
2023/01/29 10:50:15;;;;;;;10.70;7.38;;;4.20;96.80;;;;;;4868859;29;20170;-79
2023/01/29 10:53:20;;;;;;;12.65;8.15;;;4.10;96.50;;;;;;4867798;29;20108;-77
2023/01/29 10:56:04;;;;;;;10.45;7.43;;;4.10;96.40;;;;;;4868635;29;20045;-77
2023/01/29 10:58:40;;;;;;;9.82;7.10;;;4.00;96.00;;;;;;4871330;29;20056;-76
2023/01/29 11:01:09;;;;;;;9.73;6.93;;;4.10;96.40;;;;;;4886888;29;20369;-77
2023/01/29 11:03:36;;;;;;;10.00;7.40;;;4.20;96.30;;;;;;4873554;29;20041;-76
2023/01/29 11:06:14;;;;;;;10.57;7.78;;;4.20;96.20;;;;;;4872462;29;20041;-75
2023/01/29 11:09:03;;;;;;;9.38;6.93;;;4.10;96.00;;;;;;4872156;29;20081;-76
2023/01/29 11:11:40;;;;;;;11.38;7.40;;;4.10;96.40;;;;;;4888506;29;20345;-75
2023/01/29 11:14:14;;;;;;;11.98;7.63;;;4.40;96.40;;;;;;4890652;29;20041;-75
2023/01/29 11:16:46;;;;;;;10.95;7.82;;;4.60;96.00;;;;;;4871825;29;20052;-75
2023/01/29 11:19:12;;;;;;;10.38;7.20;;;4.60;95.80;;;;;;4872263;29;20060;-78
2023/01/29 11:21:52;;;;;;;12.98;7.40;;;4.70;95.70;;;;;;4886264;29;20048;-77
2023/01/29 11:24:18;;;;;;;11.32;7.88;;;4.70;95.40;;;;;;4871960;29;20068;-77
2023/01/29 11:26:47;;;;;;;13.18;7.82;;;4.80;95.70;;;;;;4855533;29;20204;-76
2023/01/29 11:29:31;;;;;;;12.27;8.00;;;4.70;95.40;;;;;;4872031;29;20184;-78
2023/01/29 11:31:59;;;;;;;11.75;7.68;;;4.90;95.30;;;;;;4871839;29;20085;-75
2023/01/29 11:34:31;;;;;;;12.35;7.45;;;4.90;96.00;;;;;;4870683;29;20033;-76
2023/01/29 11:37:02;;;;;;;10.85;7.22;;;5.00;95.80;;;;;;4871611;29;20072;-75
2023/01/29 11:39:31;;;;;;;11.27;7.53;;;5.10;95.30;;;;;;4871240;29;20212;-77
2023/01/29 11:42:02;;;;;;;11.70;8.35;;;5.20;95.10;;;;;;4871951;29;20065;-76
2023/01/29 11:44:35;;;;;;;11.55;7.00;;;5.20;94.70;;;;;;4871443;29;20081;-76
2023/01/29 11:47:31;;;;;;;11.07;7.32;;;5.00;94.50;;;;;;4870434;29;20308;-75
2023/01/29 11:50:00;;;;;;;11.77;7.53;;;4.90;94.50;;;;;;4875168;29;20045;-77
2023/01/29 11:52:35;;;;;;;11.68;7.72;;;5.10;94.90;;;;;;4871775;29;20045;-77
2023/01/29 11:55:14;;;;;;;9.82;7.68;;;5.30;94.30;;;;;;4871961;29;20033;-76
2023/01/29 11:57:42;;;;;;;11.90;7.72;;;5.70;94.60;;;;;;4871157;29;20044;-75
2023/01/29 12:00:20;;;;;;;11.27;7.55;;;5.80;93.90;;;;;;4871443;29;20037;-76
2023/01/29 12:02:55;;;;;;;9.52;7.40;;;5.80;93.60;;;;;;4870728;29;20383;-76
2023/01/29 12:05:23;;;;;;;11.52;8.15;;;5.80;93.30;;;;;;4852782;29;20060;-78
2023/01/29 12:07:52;;;;;;;10.52;8.02;;;5.80;93.30;;;;;;4852221;29;20042;-76
2023/01/29 12:10:40;;;;;;;11.60;7.97;;;5.90;93.00;;;;;;4871039;29;20052;-76
2023/01/29 12:13:20;;;;;;;;;;;5.90;93.60;;;;;;4871715;29;20101;-75
2023/01/29 12:15:47;;;;;;;10.82;7.68;;;5.90;93.20;;;;;;4870447;29;19920;-77
2023/01/29 12:18:37;;;;;;;12.38;7.78;;;6.30;93.10;;;;;;4871054;29;20333;-76
2023/01/29 12:21:04;;;;;;;13.18;9.20;;;6.40;92.30;;;;;;4871042;29;20048;-75
2023/01/29 12:23:38;;;;;;;11.23;7.80;;;6.50;93.80;;;;;;4870660;29;20033;-77
2023/01/29 12:26:06;;;;;;;11.38;7.88;;;6.80;92.40;;;;;;4870797;29;20112;-77
2023/01/29 12:29:04;;;;;;;10.50;7.88;;;7.10;91.90;;;;;;4871026;29;20037;-76
2023/01/29 12:31:47;;;;;;;10.88;7.65;;;7.50;91.00;;;;;;4870580;29;20045;-76
2023/01/29 12:34:26;;;;;;;10.40;7.38;;;8.10;90.10;;;;;;4870785;29;20033;-77
2023/01/29 12:37:02;;;;;;;11.70;7.25;;;8.30;89.00;;;;;;4867654;29;20029;-76
2023/01/29 12:39:31;;;;;;;12.63;6.55;;;8.40;87.30;;;;;;4851076;29;20316;-77
2023/01/29 12:42:17;;;;;;;7.85;6.40;;;8.30;86.20;;;;;;4852542;29;20042;-75
2023/01/29 12:45:09;;;;;;;7.97;6.68;;;8.10;89.00;;;;;;4851883;29;20042;-75
2023/01/29 12:47:47;;;;;;;9.10;7.03;;;8.30;87.10;;;;;;4851857;29;20034;-78
2023/01/29 12:50:28;;;;;;;9.00;6.47;;;8.70;86.10;;;;;;4852410;29;20205;-77
2023/01/29 12:53:00;;;;;;;8.88;6.78;;;8.50;85.70;;;;;;4850298;29;20151;-75
2023/01/29 12:55:35;;;;;;;9.35;7.88;;;8.80;83.90;;;;;;4851962;29;20044;-76
2023/01/29 12:58:18;;;;;;;9.38;7.60;;;9.10;83.30;;;;;;4852047;29;20030;-75
2023/01/29 13:00:48;;;;;;;10.20;6.68;;;9.10;83.50;;;;;;4851576;29;20030;-75
2023/01/29 13:03:37;;;;;;;9.52;7.38;;;9.90;84.80;;;;;;4862745;29;20349;-75
2023/01/29 13:06:10;;;;;;;9.20;7.05;;;9.60;81.40;;;;;;4870320;29;20204;-78
2023/01/29 13:08:52;;;;;;;10.80;7.18;;;9.60;81.50;;;;;;4869814;29;20105;-76
2023/01/29 13:11:35;;;;;;;8.48;7.15;;;8.80;83.30;;;;;;4870341;29;20029;-75
2023/01/29 13:14:19;;;;;;;8.40;6.97;;;8.50;83.00;;;;;;4884803;29;20030;-76
2023/01/29 13:16:49;;;;;;;9.05;7.07;;;8.20;83.80;;;;;;4869530;29;20064;-77
2023/01/29 13:19:41;;;;;;;8.18;6.57;;;8.30;84.70;;;;;;4884318;29;20054;-76
2023/01/29 13:22:34;;;;;;;10.60;7.40;;;8.50;84.30;;;;;;4870263;29;20086;-75
2023/01/29 13:25:00;;;;;;;9.43;7.13;;;8.20;84.20;;;;;;4869832;29;20045;-75
2023/01/29 13:27:28;;;;;;;10.23;7.10;;;8.30;83.50;;;;;;4870151;29;20026;-76
2023/01/29 13:29:56;;;;;;;8.68;6.78;;;8.30;84.80;;;;;;4869422;29;20048;-77
2023/01/29 13:32:24;;;;;;;8.70;6.50;;;8.50;84.80;;;;;;4869839;29;20101;-75
2023/01/29 13:34:54;;;;;;;8.85;6.60;;;8.50;85.20;;;;;;4869554;29;20040;-77
2023/01/29 13:37:31;;;;;;;9.23;7.00;;;9.00;83.20;;;;;;4869873;29;20045;-75
2023/01/29 13:40:00;;;;;;;8.18;6.47;;;9.10;82.30;;;;;;4869719;29;20067;-75
2023/01/29 13:42:41;;;;;;;9.93;7.00;;;9.40;81.80;;;;;;4870013;29;20041;-74
2023/01/29 13:45:16;;;;;;;8.52;6.75;;;9.10;81.30;;;;;;4868669;29;20078;-75
2023/01/29 13:47:42;;;;;;;8.73;6.53;;;8.60;82.30;;;;;;4869259;29;20223;-78
2023/01/29 13:50:17;;;;;;;8.50;6.68;;;7.90;82.40;;;;;;4869739;29;20064;-77
2023/01/29 13:52:45;;;;;;;9.30;6.45;;;7.70;86.00;;;;;;4867755;29;20045;-75
2023/01/29 13:55:13;;;;;;;10.40;7.47;;;7.40;85.00;;;;;;4869724;29;20053;-76
2023/01/29 13:57:45;;;;;;;10.60;7.60;;;7.40;84.90;;;;;;4868954;29;20041;-76
2023/01/29 14:00:20;;;;;;;11.82;7.63;;;7.20;85.90;;;;;;4869524;29;20033;-76
2023/01/29 14:02:46;;;;;;;11.30;8.05;;;7.30;86.90;;;;;;4869546;29;20037;-76
2023/01/29 14:05:30;;;;;;;12.38;8.30;;;7.30;87.10;;;;;;4869890;29;20044;-76
2023/01/29 14:08:04;;;;;;;12.55;8.88;;;7.30;86.80;;;;;;4869436;29;20068;-76
2023/01/29 14:10:32;;;;;;;13.40;7.88;;;7.10;88.00;;;;;;4868405;29;20029;-77
2023/01/29 14:13:22;;;;;;;12.90;8.27;;;6.70;89.30;;;;;;4869181;29;20041;-76
2023/01/29 14:15:56;;;;;;;12.13;8.55;;;6.50;90.00;;;;;;4869038;29;20064;-75
2023/01/29 14:18:31;;;;;;;11.23;7.70;;;6.50;90.10;;;;;;4869323;29;20393;-76
2023/01/29 14:21:18;;;;;;;12.68;8.50;;;6.50;90.00;;;;;;4867580;29;20093;-76
2023/01/29 14:23:46;;;;;;;10.15;7.50;;;6.20;90.40;;;;;;4868452;29;20038;-76
2023/01/29 14:26:37;;;;;;;11.43;7.53;;;6.10;90.60;;;;;;4853199;29;20196;-76
2023/01/29 14:29:14;;;;;;;12.77;8.25;;;5.90;90.60;;;;;;4850003;29;20189;-76
2023/01/29 14:31:42;;;;;;;12.82;8.15;;;5.80;91.10;;;;;;4851555;29;20045;-76
2023/01/29 14:34:20;;;;;;;11.90;7.93;;;5.90;91.40;;;;;;4854861;29;20033;-78
2023/01/29 14:36:53;;;;;;;12.23;8.30;;;5.90;91.00;;;;;;4866253;29;20052;-76
2023/01/29 14:39:24;;;;;;;12.60;7.97;;;6.00;91.20;;;;;;4871860;29;20040;-76
2023/01/29 14:41:50;;;;;;;12.63;8.68;;;5.90;91.30;;;;;;4871818;29;20097;-75
2023/01/29 14:44:47;;;;;;;13.70;8.55;;;6.00;91.20;;;;;;4861402;29;20022;-75
2023/01/29 14:47:31;;;;;;;11.98;8.07;;;6.00;90.80;;;;;;4863839;29;20264;-75
2023/01/29 14:50:21;;;;;;;11.77;8.10;;;6.30;91.50;;;;;;4853818;29;20524;-77
2023/01/29 14:52:49;;;;;;;13.50;8.43;;;6.40;91.40;;;;;;4852841;29;20211;-77
2023/01/29 14:55:28;;;;;;;14.40;9.02;;;6.40;90.70;;;;;;4852918;29;20033;-77
2023/01/29 14:57:56;;;;;;;18.55;11.13;;;6.20;91.60;;;;;;4854296;29;20101;-76
2023/01/29 15:00:37;;;;;;;14.85;9.95;;;6.20;91.20;;;;;;4854347;29;20034;-75
2023/01/29 15:03:14;;;;;;;14.93;8.77;;;6.10;92.50;;;;;;4854057;29;20052;-75
2023/01/29 15:05:41;;;;;;;12.20;8.20;;;6.20;91.60;;;;;;4853938;29;20049;-76
2023/01/29 15:08:19;;;;;;;13.95;10.02;;;6.70;92.80;;;;;;4854369;29;20038;-78
2023/01/29 15:11:32;;;;;;;13.63;8.77;;;7.30;92.10;;;;;;4863922;29;20304;-77
2023/01/29 15:13:55;;;;;;;13.18;9.00;;;7.80;89.70;;;;;;4873044;29;20057;-80
2023/01/29 15:16:31;;;;;;;13.60;8.95;;;7.90;89.00;;;;;;4872305;29;20046;-75
2023/01/29 15:19:12;;;;;;;11.90;8.68;;;7.80;88.70;;;;;;4870989;29;20068;-76
2023/01/29 15:21:37;;;;;;;12.60;8.10;;;7.90;88.80;;;;;;4886684;29;20224;-79
2023/01/29 15:24:05;;;;;;;10.82;8.35;;;7.80;89.50;;;;;;4872127;29;20093;-79
2023/01/29 15:26:32;;;;;;;15.73;11.77;;;7.80;89.90;;;;;;4886845;29;20093;-79
2023/01/29 15:28:59;;;;;;;13.80;9.18;;;7.70;89.20;;;;;;4870768;29;20029;-76
2023/01/29 15:31:27;;;;;;;12.70;8.60;;;7.60;88.40;;;;;;4872038;29;20268;-78
2023/01/29 15:33:55;;;;;;;12.13;8.07;;;7.70;89.30;;;;;;4871787;29;20021;-77
2023/01/29 15:36:27;;;;;;;11.23;8.20;;;7.60;88.40;;;;;;4871967;29;20048;-78
2023/01/29 15:39:11;;;;;;;11.23;8.32;;;7.70;87.80;;;;;;4871701;29;20048;-77
2023/01/29 15:41:36;;;;;;;12.18;8.38;;;7.90;88.20;;;;;;4872035;29;20034;-78
2023/01/29 15:44:02;;;;;;;12.70;8.77;;;8.00;89.60;;;;;;4870790;29;20082;-76
2023/01/29 15:46:33;;;;;;;11.00;7.78;;;7.60;89.10;;;;;;4871957;29;20337;-76
2023/01/29 15:49:05;;;;;;;11.40;7.78;;;7.20;89.50;;;;;;4870318;29;20216;-77
2023/01/29 15:51:30;;;;;;;13.35;9.05;;;6.70;91.00;;;;;;4871875;29;20063;-78
2023/01/29 15:54:08;;;;;;;13.07;8.80;;;6.30;91.20;;;;;;4871368;29;20034;-80
2023/01/29 15:56:39;;;;;;;13.07;8.43;;;5.90;92.50;;;;;;4871766;29;20039;-76
2023/01/29 15:59:07;;;;;;;16.52;9.23;;;5.60;91.90;;;;;;4871167;29;20037;-76
2023/01/29 16:01:33;;;;;;;;;;;5.20;92.50;;;;;;4872300;29;20063;-76
2023/01/29 16:04:03;;;;;;;14.73;9.77;;;4.70;93.20;;;;;;4871443;29;20119;-77
2023/01/29 16:06:35;;;;;;;13.60;9.13;;;4.40;93.90;;;;;;4870432;29;20048;-77
2023/01/29 16:09:03;;;;;;;15.40;9.90;;;4.10;94.50;;;;;;4873354;29;20049;-76
2023/01/29 16:11:29;;;;;;;16.63;10.27;;;3.90;94.60;;;;;;4870996;29;20029;-76
2023/01/29 16:13:56;;;;;;;15.13;9.85;;;3.80;95.40;;;;;;4870522;29;20033;-78
2023/01/29 16:16:26;;;;;;;13.65;8.43;;;3.60;95.10;;;;;;4861668;29;20062;-77
2023/01/29 16:18:53;;;;;;;14.43;9.02;;;3.30;95.20;;;;;;4852391;29;20069;-77
2023/01/29 16:21:39;;;;;;;14.90;8.82;;;3.30;97.30;;;;;;4852377;29;20116;-76
2023/01/29 16:24:10;;;;;;;14.43;9.13;;;3.20;96.00;;;;;;4852915;29;20034;-76
2023/01/29 16:26:45;;;;;;;21.13;13.93;;;3.10;96.00;;;;;;4870138;29;20039;-76
2023/01/29 16:29:18;;;;;;;18.25;12.85;;;2.90;96.30;;;;;;4871454;29;20085;-76
2023/01/29 16:31:46;;;;;;;16.08;10.13;;;2.80;96.50;;;;;;4869838;29;20108;-76
2023/01/29 16:34:31;;;;;;;21.50;12.50;;;2.70;96.80;;;;;;4871086;29;20056;-79
2023/01/29 16:37:00;;;;;;;19.67;12.40;;;2.60;97.80;;;;;;4869548;29;20060;-78
2023/01/29 16:39:33;;;;;;;16.15;9.95;;;2.50;97.40;;;;;;4869736;29;20041;-78
2023/01/29 16:42:11;;;;;;;17.42;10.82;;;2.40;98.00;;;;;;4869388;29;20029;-78
2023/01/29 16:44:39;;;;;;;15.20;9.82;;;2.20;98.70;;;;;;4870739;29;20139;-76
2023/01/29 16:47:11;;;;;;;16.60;9.50;;;2.20;98.80;;;;;;4870336;29;20219;-80
2023/01/29 16:49:37;;;;;;;16.60;10.15;;;2.10;99.00;;;;;;4871034;29;20057;-75
2023/01/29 16:52:23;;;;;;;16.13;9.52;;;2.00;99.80;;;;;;4870239;29;20063;-80
2023/01/29 16:54:49;;;;;;;18.73;10.73;;;2.00;99.90;;;;;;4869919;29;20032;-81
2023/01/29 16:57:27;;;;;;;18.50;10.00;;;1.90;99.90;;;;;;4854470;29;20033;-78
2023/01/29 16:59:57;;;;;;;16.30;9.55;;;1.80;99.90;;;;;;4870498;29;20141;-78
2023/01/29 17:02:37;;;;;;;16.27;10.18;;;1.80;99.90;;;;;;4870517;29;20044;-75
2023/01/29 17:05:07;;;;;;;19.20;10.25;;;1.70;99.90;;;;;;4870451;29;20109;-77
2023/01/29 17:07:34;;;;;;;17.92;10.48;;;1.70;99.90;;;;;;4870421;29;20323;-77
2023/01/29 17:10:03;;;;;;;17.05;10.32;;;1.60;99.90;;;;;;4869723;29;20064;-76
2023/01/29 17:12:31;;;;;;;17.55;10.50;;;1.60;99.90;;;;;;4870266;29;20037;-76
2023/01/29 17:14:59;;;;;;;17.25;11.20;;;1.50;99.90;;;;;;4869682;29;20185;-75
2023/01/29 17:17:33;;;;;;;17.38;10.68;;;1.50;99.90;;;;;;4870114;29;20105;-76
2023/01/29 17:20:11;;;;;;;17.30;10.57;;;1.50;99.90;;;;;;4868249;29;20048;-78
2023/01/29 17:22:36;;;;;;;;;;;1.40;99.90;;;;;;4870189;29;20065;-75
2023/01/29 17:25:02;;;;;;;19.60;13.20;;;1.30;99.90;;;;;;4869913;29;20138;-78
2023/01/29 17:27:28;;;;;;;29.42;17.50;;;1.20;99.90;;;;;;4868506;29;20029;-75
2023/01/29 17:29:54;;;;;;;23.00;15.10;;;1.10;99.90;;;;;;4868551;29;20036;-77
2023/01/29 17:32:20;;;;;;;27.35;15.23;;;1.00;99.90;;;;;;4868773;29;20042;-75
2023/01/29 17:34:46;;;;;;;22.20;13.38;;;1.00;99.90;;;;;;4884454;29;20044;-76
2023/01/29 17:37:14;;;;;;;25.23;15.32;;;1.00;99.90;;;;;;4868568;29;20098;-77
2023/01/29 17:39:41;;;;;;;23.75;14.80;;;0.90;99.90;;;;;;4869014;29;20060;-77
2023/01/29 17:42:11;;;;;;;23.00;13.80;;;0.80;99.90;;;;;;4869343;29;20362;-77
2023/01/29 17:44:37;;;;;;;21.88;12.55;;;0.80;99.90;;;;;;4868157;29;20455;-77
2023/01/29 17:47:04;;;;;;;16.38;10.35;;;0.80;99.90;;;;;;4869247;29;20029;-77
2023/01/29 17:49:36;;;;;;;19.27;10.82;;;0.80;99.90;;;;;;4868471;29;20299;-77
2023/01/29 17:52:02;;;;;;;17.75;10.70;;;0.70;99.90;;;;;;4869070;29;20034;-76
2023/01/29 17:54:28;;;;;;;16.13;9.68;;;0.60;99.90;;;;;;4869872;29;20040;-77
2023/01/29 17:56:54;;;;;;;15.60;9.60;;;0.70;99.90;;;;;;4867663;29;20029;-77
2023/01/29 17:59:22;;;;;;;17.42;10.18;;;0.70;99.90;;;;;;4869567;29;20033;-76
2023/01/29 18:01:49;;;;;;;20.50;11.20;;;0.70;99.90;;;;;;4869797;29;20108;-76
2023/01/29 18:04:15;;;;;;;18.48;10.25;;;0.70;99.90;;;;;;4869542;29;20076;-76
2023/01/29 18:06:43;;;;;;;18.35;10.93;;;0.70;99.90;;;;;;4883702;29;20033;-76
2023/01/29 18:09:19;;;;;;;21.48;12.57;;;0.60;99.90;;;;;;4869315;29;20307;-78
2023/01/29 18:11:46;;;;;;;24.00;13.55;;;0.50;99.90;;;;;;4883578;29;20041;-77
2023/01/29 18:14:12;;;;;;;20.23;13.57;;;0.40;99.90;;;;;;4869225;29;20079;-77
2023/01/29 18:16:39;;;;;;;25.80;14.90;;;0.30;99.90;;;;;;4882636;29;20068;-77
2023/01/29 18:19:12;;;;;;;26.60;14.73;;;0.20;99.90;;;;;;4868817;29;20025;-77
2023/01/29 18:21:37;;;;;;;24.60;14.95;;;0.20;99.90;;;;;;4883566;29;20469;-76
2023/01/29 18:24:03;;;;;;;26.75;15.50;;;0.10;99.90;;;;;;4868609;29;20026;-77
2023/01/29 18:26:29;;;;;;;24.85;14.93;;;0.10;99.90;;;;;;4869048;29;20029;-78
2023/01/29 18:28:55;;;;;;;26.83;15.35;;;0.00;99.90;;;;;;4868686;29;20034;-75
2023/01/29 18:31:21;;;;;;;24.42;14.98;;;0.00;99.90;;;;;;4869078;29;20040;-76
2023/01/29 18:33:46;;;;;;;22.52;14.48;;;0.10;99.90;;;;;;4869685;29;20089;-75
2023/01/29 18:36:12;;;;;;;26.15;14.75;;;0.10;99.90;;;;;;4867533;29;20267;-73
2023/01/29 18:38:38;;;;;;;24.83;15.98;;;0.10;99.90;;;;;;4867989;29;20151;-73
2023/01/29 18:41:06;;;;;;;26.92;16.30;;;0.10;99.90;;;;;;4867529;29;20110;-75
2023/01/29 18:43:31;;;;;;;24.77;15.57;;;0.10;99.90;;;;;;4869333;29;20052;-75
2023/01/29 18:45:58;;;;;;;27.23;16.60;;;0.10;99.90;;;;;;4868867;29;20433;-76